Time;durP1;ratioP1;P1;durP2;ratioP2;P2;SDS_P1;SDS_P2;PMS_P1;PMS_P2;Temp;Humidity;BMP_temperature;BMP_pressure;BME280_temperature;BME280_humidity;BME280_pressure;Samples;Min_cycle;Max_cycle;Signal;HPM_P1;HPM_P2
2023/12/16 00:00:57;;;;;;;12.63;12.23;;;8.30;99.90;;;;;;5077232;28;20219;-65
2023/12/16 00:03:24;;;;;;;13.73;13.23;;;8.30;99.90;;;;;;5079316;28;20207;-65
2023/12/16 00:05:52;;;;;;;13.50;13.00;;;8.30;99.90;;;;;;5086958;28;20203;-64
2023/12/16 00:08:18;;;;;;;14.77;14.27;;;8.30;99.90;;;;;;5078175;28;20231;-66
2023/12/16 00:10:46;;;;;;;15.33;14.83;;;8.40;99.90;;;;;;5071338;28;20195;-64
2023/12/16 00:13:13;;;;;;;13.87;13.37;;;8.30;99.90;;;;;;5072433;28;20207;-63
2023/12/16 00:15:40;;;;;;;14.43;13.93;;;8.40;99.90;;;;;;5073548;28;20200;-64
2023/12/16 00:18:06;;;;;;;14.90;14.40;;;8.40;99.90;;;;;;5073411;28;20588;-64
2023/12/16 00:20:33;;;;;;;13.90;13.40;;;8.40;99.90;;;;;;5072438;28;20597;-63
2023/12/16 00:23:00;;;;;;;14.70;14.20;;;8.50;99.90;;;;;;5072430;28;20203;-64
2023/12/16 00:25:26;;;;;;;14.43;13.93;;;8.50;99.90;;;;;;5077569;28;20214;-65
2023/12/16 00:27:54;;;;;;;14.40;13.90;;;8.50;99.90;;;;;;5079886;28;20231;-65
2023/12/16 00:30:21;;;;;;;15.60;15.10;;;8.40;99.90;;;;;;5075762;28;20294;-65
2023/12/16 00:32:48;;;;;;;14.33;13.83;;;8.40;99.90;;;;;;5076691;28;20218;-65
2023/12/16 00:35:15;;;;;;;14.77;14.27;;;8.40;99.90;;;;;;5075832;28;20681;-65
2023/12/16 00:37:41;;;;;;;15.10;14.53;;;8.40;99.90;;;;;;5071979;28;20238;-63
2023/12/16 00:40:09;;;;;;;14.37;13.87;;;8.40;99.90;;;;;;5071690;28;20207;-65
2023/12/16 00:42:36;;;;;;;14.13;13.63;;;8.40;99.90;;;;;;5070203;28;20224;-64
2023/12/16 00:45:06;;;;;;;14.23;13.73;;;8.50;99.90;;;;;;5071618;28;20678;-64
2023/12/16 00:47:33;;;;;;;14.00;13.50;;;8.40;99.90;;;;;;5072483;28;20225;-64
2023/12/16 00:49:59;;;;;;;14.93;14.33;;;8.40;99.90;;;;;;5072364;28;20207;-64
2023/12/16 00:52:26;;;;;;;13.80;13.30;;;8.40;99.90;;;;;;5070879;28;20587;-64
2023/12/16 00:54:53;;;;;;;13.43;12.93;;;8.40;99.90;;;;;;5072905;28;20210;-64
2023/12/16 00:57:20;;;;;;;12.97;12.50;;;8.40;99.90;;;;;;5072699;28;20227;-63
2023/12/16 00:59:47;;;;;;;14.57;14.07;;;8.40;99.90;;;;;;5072087;28;20199;-64
2023/12/16 01:02:15;;;;;;;13.47;12.97;;;8.40;99.90;;;;;;5071000;28;20662;-63
2023/12/16 01:04:42;;;;;;;14.30;13.80;;;8.40;99.90;;;;;;5071602;28;20207;-64
2023/12/16 01:07:08;;;;;;;14.83;14.33;;;8.40;99.90;;;;;;5071758;28;20679;-65
2023/12/16 01:09:35;;;;;;;14.80;14.30;;;8.40;99.90;;;;;;5071984;28;20619;-65
2023/12/16 01:12:02;;;;;;;15.27;14.67;;;8.30;99.90;;;;;;5071015;28;20200;-64
2023/12/16 01:14:29;;;;;;;14.23;13.73;;;8.30;99.90;;;;;;5069767;28;20723;-63
2023/12/16 01:16:56;;;;;;;13.90;13.40;;;8.20;99.90;;;;;;5071052;28;20207;-63
2023/12/16 01:19:24;;;;;;;14.07;13.57;;;8.20;99.90;;;;;;5071243;28;20874;-64
2023/12/16 01:21:50;;;;;;;14.97;14.33;;;8.20;99.90;;;;;;5070955;28;20259;-64
2023/12/16 01:24:17;;;;;;;14.53;14.03;;;8.20;99.90;;;;;;5071573;28;20199;-64
2023/12/16 01:26:44;;;;;;;14.37;13.87;;;8.10;99.90;;;;;;5070810;28;20215;-64
2023/12/16 01:29:11;;;;;;;14.73;14.23;;;8.00;99.90;;;;;;5070081;28;20237;-63
2023/12/16 01:31:38;;;;;;;15.20;14.70;;;8.00;99.90;;;;;;5070384;28;20211;-64
2023/12/16 01:34:04;;;;;;;14.60;14.10;;;7.90;99.90;;;;;;5071251;28;20214;-63
2023/12/16 01:36:33;;;;;;;14.83;14.23;;;7.90;99.90;;;;;;5070877;28;20211;-64
2023/12/16 01:39:00;;;;;;;16.07;15.47;;;8.00;99.90;;;;;;5071602;28;20231;-65
2023/12/16 01:41:26;;;;;;;14.53;14.03;;;8.00;99.90;;;;;;5070426;28;20227;-65
2023/12/16 01:43:53;;;;;;;14.80;14.20;;;8.00;99.90;;;;;;5084909;28;20203;-65
2023/12/16 01:46:22;;;;;;;15.07;14.57;;;8.00;99.90;;;;;;5077838;28;20265;-65
2023/12/16 01:48:49;;;;;;;15.07;14.50;;;8.00;99.90;;;;;;5071512;28;20343;-63
2023/12/16 01:51:17;;;;;;;14.20;13.70;;;8.00;99.90;;;;;;5070942;28;20593;-64
2023/12/16 01:53:46;;;;;;;14.43;13.93;;;8.00;99.90;;;;;;5069873;28;20709;-64
2023/12/16 01:56:13;;;;;;;14.73;14.23;;;7.90;99.90;;;;;;5070478;28;20226;-64
2023/12/16 01:58:41;;;;;;;14.90;14.40;;;7.90;99.90;;;;;;5070951;28;20223;-64
2023/12/16 02:01:08;;;;;;;15.13;14.63;;;7.80;99.90;;;;;;5070341;28;20701;-65
2023/12/16 02:03:37;;;;;;;14.57;14.07;;;7.80;99.90;;;;;;5071066;28;20284;-65
2023/12/16 02:06:05;;;;;;;14.73;14.23;;;7.80;99.90;;;;;;5070976;28;20204;-66
2023/12/16 02:08:31;;;;;;;14.53;14.03;;;7.80;99.90;;;;;;5070690;28;20731;-65
2023/12/16 02:11:00;;;;;;;15.10;14.60;;;7.80;99.90;;;;;;5070608;28;20199;-65
2023/12/16 02:13:26;;;;;;;15.23;14.73;;;7.80;99.90;;;;;;5070733;28;20215;-65
2023/12/16 02:15:53;;;;;;;14.47;13.97;;;7.70;99.90;;;;;;5070182;28;20207;-65
2023/12/16 02:18:21;;;;;;;14.37;13.87;;;7.70;99.90;;;;;;5070507;28;20247;-65
2023/12/16 02:20:48;;;;;;;14.70;14.20;;;7.70;99.90;;;;;;5070161;28;20203;-65
2023/12/16 02:23:17;;;;;;;14.63;14.13;;;7.60;99.90;;;;;;5072487;28;20245;-64
2023/12/16 02:25:44;;;;;;;15.47;14.87;;;7.60;99.90;;;;;;5068694;28;20211;-63
2023/12/16 02:28:11;;;;;;;15.77;15.17;;;7.60;99.90;;;;;;5070535;28;20219;-64
2023/12/16 02:30:38;;;;;;;14.77;14.27;;;7.50;99.90;;;;;;5070088;28;20203;-64
2023/12/16 02:33:05;;;;;;;15.77;15.17;;;7.50;99.90;;;;;;5069009;28;20196;-64
2023/12/16 02:35:31;;;;;;;14.53;14.03;;;7.50;99.90;;;;;;5069350;28;20578;-63
2023/12/16 02:37:58;;;;;;;14.80;14.30;;;7.50;99.90;;;;;;5071547;28;20239;-63
2023/12/16 02:40:26;;;;;;;14.67;14.17;;;7.50;99.90;;;;;;5074110;28;20207;-64
2023/12/16 02:42:53;;;;;;;14.37;13.87;;;7.60;99.90;;;;;;5074509;28;20238;-65
2023/12/16 02:45:19;;;;;;;15.10;14.60;;;7.60;99.90;;;;;;5074289;28;20218;-64
2023/12/16 02:47:46;;;;;;;14.23;13.73;;;7.60;99.90;;;;;;5077256;28;20767;-64
2023/12/16 02:50:13;;;;;;;14.67;14.17;;;7.60;99.90;;;;;;5078190;28;20281;-64
2023/12/16 02:52:40;;;;;;;14.70;14.20;;;7.70;99.90;;;;;;5078330;28;20207;-65
2023/12/16 02:55:07;;;;;;;14.97;14.47;;;7.70;99.90;;;;;;5078729;28;20199;-65
2023/12/16 02:57:35;;;;;;;14.07;13.57;;;7.70;99.90;;;;;;5078343;28;20238;-64
2023/12/16 03:00:02;;;;;;;13.83;13.33;;;7.80;99.90;;;;;;5075541;28;20210;-65
2023/12/16 03:02:29;;;;;;;14.30;13.80;;;7.80;99.90;;;;;;5075333;28;20249;-64
2023/12/16 03:04:55;;;;;;;13.93;13.43;;;7.80;99.90;;;;;;5076444;28;20207;-65
2023/12/16 03:07:22;;;;;;;14.73;14.23;;;7.80;99.90;;;;;;5075596;28;20223;-65
2023/12/16 03:09:49;;;;;;;13.70;13.20;;;7.80;99.90;;;;;;5074692;28;20248;-63
2023/12/16 03:12:15;;;;;;;14.20;13.70;;;7.70;99.90;;;;;;5073691;28;20202;-64
2023/12/16 03:14:44;;;;;;;13.67;13.17;;;7.70;99.90;;;;;;5074028;28;20206;-64
2023/12/16 03:17:10;;;;;;;14.40;13.90;;;7.70;99.90;;;;;;5073774;28;20199;-63
2023/12/16 03:19:37;;;;;;;15.30;14.80;;;7.60;99.90;;;;;;5073827;28;20589;-65
2023/12/16 03:22:04;;;;;;;14.23;13.73;;;7.60;99.90;;;;;;5075955;28;20215;-63
2023/12/16 03:24:31;;;;;;;14.73;14.23;;;7.60;99.90;;;;;;5086844;28;20234;-64
2023/12/16 03:26:58;;;;;;;14.83;14.33;;;7.60;99.90;;;;;;5074194;28;20207;-64
2023/12/16 03:29:44;;;;;;;15.40;14.80;;;7.50;99.90;;;;;;5073228;28;20207;-65
2023/12/16 03:32:11;;;;;;;14.73;14.23;;;7.50;99.90;;;;;;5068413;28;20203;-65
2023/12/16 03:34:37;;;;;;;15.40;14.80;;;7.50;99.90;;;;;;5073468;28;20208;-64
2023/12/16 03:37:04;;;;;;;15.00;14.50;;;7.40;99.90;;;;;;5073759;28;20222;-65
2023/12/16 03:39:31;;;;;;;14.30;13.80;;;7.50;99.90;;;;;;5073377;28;20207;-64
2023/12/16 03:41:57;;;;;;;14.57;14.07;;;7.50;99.90;;;;;;5072670;28;20223;-65
2023/12/16 03:44:24;;;;;;;14.93;14.33;;;7.60;99.90;;;;;;5072949;28;20696;-64
2023/12/16 03:46:52;;;;;;;15.10;14.60;;;7.50;99.90;;;;;;5072878;28;20214;-67
2023/12/16 03:49:19;;;;;;;15.17;14.67;;;7.50;99.90;;;;;;5072078;28;20227;-64
2023/12/16 03:51:46;;;;;;;14.77;14.27;;;7.50;99.90;;;;;;5073629;28;20271;-64
2023/12/16 03:54:12;;;;;;;14.63;14.03;;;7.50;99.90;;;;;;5074406;28;20200;-64
2023/12/16 03:56:39;;;;;;;15.00;14.50;;;7.50;99.90;;;;;;5072729;28;20204;-65
2023/12/16 03:59:06;;;;;;;15.43;14.93;;;7.50;99.90;;;;;;5074920;28;20231;-64
2023/12/16 04:01:32;;;;;;;15.50;14.90;;;7.50;99.90;;;;;;5073797;28;20199;-65
2023/12/16 04:04:00;;;;;;;14.07;13.57;;;7.50;99.90;;;;;;5076044;28;20226;-64
2023/12/16 04:06:27;;;;;;;15.13;14.63;;;7.50;99.90;;;;;;5075264;28;20207;-64
2023/12/16 04:08:54;;;;;;;14.37;13.87;;;7.60;99.90;;;;;;5075792;28;20241;-65
2023/12/16 04:11:21;;;;;;;14.97;14.47;;;7.60;99.90;;;;;;5075261;28;20318;-65
2023/12/16 04:13:48;;;;;;;14.53;14.03;;;7.60;99.90;;;;;;5072341;28;20206;-64
2023/12/16 04:16:15;;;;;;;14.60;14.10;;;7.60;99.90;;;;;;5072817;28;20592;-63
2023/12/16 04:18:42;;;;;;;15.60;15.00;;;7.70;99.90;;;;;;5073617;28;20227;-64
2023/12/16 04:21:10;;;;;;;15.27;14.77;;;7.60;99.90;;;;;;5073135;28;20290;-64
2023/12/16 04:23:37;;;;;;;14.10;13.60;;;7.60;99.90;;;;;;5075329;28;20317;-64
2023/12/16 04:26:04;;;;;;;14.77;14.27;;;7.60;99.90;;;;;;5075088;28;20187;-65
2023/12/16 04:28:30;;;;;;;13.50;13.00;;;7.60;99.90;;;;;;5071263;28;20235;-65
2023/12/16 04:30:57;;;;;;;13.63;13.13;;;7.60;99.90;;;;;;5073127;28;20550;-64
2023/12/16 04:33:24;;;;;;;14.20;13.70;;;7.60;99.90;;;;;;5074700;28;20214;-66
2023/12/16 04:35:50;;;;;;;14.40;13.90;;;7.70;99.90;;;;;;5074517;28;20203;-65
2023/12/16 04:38:18;;;;;;;13.77;13.27;;;7.60;99.90;;;;;;5075225;28;20231;-65
2023/12/16 04:40:45;;;;;;;14.20;13.70;;;7.70;99.90;;;;;;5076809;28;20211;-65
2023/12/16 04:43:12;;;;;;;13.47;12.87;;;7.70;99.90;;;;;;5070909;28;20220;-64
2023/12/16 04:45:38;;;;;;;14.57;14.07;;;7.70;99.90;;;;;;5075670;28;20203;-65
2023/12/16 04:48:05;;;;;;;14.30;13.80;;;7.60;99.90;;;;;;5074278;28;20689;-63
2023/12/16 04:50:32;;;;;;;15.00;14.50;;;7.70;99.90;;;;;;5073386;28;20210;-65
2023/12/16 04:52:59;;;;;;;13.73;13.23;;;7.70;99.90;;;;;;5071885;28;20207;-64
2023/12/16 04:55:27;;;;;;;13.70;13.20;;;7.70;99.90;;;;;;5066928;28;20211;-64
2023/12/16 04:57:54;;;;;;;13.97;13.47;;;7.70;99.90;;;;;;5069887;28;20288;-65
2023/12/16 05:00:21;;;;;;;14.97;14.37;;;7.60;99.90;;;;;;5070325;28;20207;-63
2023/12/16 05:02:48;;;;;;;13.70;13.20;;;7.60;99.90;;;;;;5071857;28;20223;-64
2023/12/16 05:05:14;;;;;;;14.67;14.17;;;7.60;99.90;;;;;;5083179;28;20684;-64
2023/12/16 05:07:41;;;;;;;14.37;13.87;;;7.60;99.90;;;;;;5072701;28;20230;-64
2023/12/16 05:10:10;;;;;;;14.03;13.53;;;7.60;99.90;;;;;;5066573;28;20203;-64
2023/12/16 05:12:40;;;;;;;14.53;14.03;;;7.60;99.90;;;;;;5066666;28;20252;-64
2023/12/16 05:15:08;;;;;;;13.90;13.40;;;7.60;99.90;;;;;;5071741;28;20222;-64
2023/12/16 05:17:33;;;;;;;13.93;13.43;;;7.60;99.90;;;;;;5072198;28;20223;-63
2023/12/16 05:20:00;;;;;;;13.47;12.97;;;7.70;99.90;;;;;;5072052;28;20206;-63
2023/12/16 05:22:27;;;;;;;14.03;13.53;;;7.70;99.90;;;;;;5071844;28;20215;-64
2023/12/16 05:24:54;;;;;;;14.67;14.17;;;7.70;99.90;;;;;;5069129;28;20214;-65
2023/12/16 05:27:20;;;;;;;14.50;14.00;;;7.60;99.90;;;;;;5074282;28;20215;-64
2023/12/16 05:29:48;;;;;;;14.30;13.80;;;7.60;99.90;;;;;;5073333;28;20642;-63
2023/12/16 05:32:15;;;;;;;14.40;13.90;;;7.50;99.90;;;;;;5071176;28;20203;-64
2023/12/16 05:34:42;;;;;;;14.37;13.87;;;7.50;99.90;;;;;;5071088;28;20662;-64
2023/12/16 05:37:08;;;;;;;13.93;13.43;;;7.60;99.90;;;;;;5066376;28;20207;-63
2023/12/16 05:39:35;;;;;;;13.63;13.13;;;7.50;99.90;;;;;;5071381;28;20211;-64
2023/12/16 05:42:02;;;;;;;14.47;13.97;;;7.50;99.90;;;;;;5071520;28;20212;-64
2023/12/16 05:44:29;;;;;;;13.40;12.93;;;7.50;99.90;;;;;;5070885;28;20219;-64
2023/12/16 05:46:57;;;;;;;13.60;13.10;;;7.50;99.90;;;;;;5067152;28;20674;-64
2023/12/16 05:49:23;;;;;;;14.17;13.67;;;7.60;99.90;;;;;;5072716;28;20207;-64
2023/12/16 05:51:50;;;;;;;13.87;13.37;;;7.60;99.90;;;;;;5072225;28;20213;-63
2023/12/16 05:54:18;;;;;;;14.77;14.27;;;7.60;99.90;;;;;;5074091;28;20694;-65
2023/12/16 05:56:45;;;;;;;14.63;14.13;;;7.60;99.90;;;;;;5070772;28;20206;-64
2023/12/16 05:59:12;;;;;;;15.10;14.57;;;7.60;99.90;;;;;;5071347;28;20309;-64
2023/12/16 06:01:39;;;;;;;14.50;14.00;;;7.50;99.90;;;;;;5073192;28;20210;-65
2023/12/16 06:04:07;;;;;;;14.20;13.70;;;7.50;99.90;;;;;;5072426;28;20619;-64
2023/12/16 06:06:34;;;;;;;14.43;13.93;;;7.50;99.90;;;;;;5078160;28;20207;-64
2023/12/16 06:09:00;;;;;;;14.60;14.10;;;7.60;99.90;;;;;;5081761;28;20227;-65
2023/12/16 06:11:27;;;;;;;14.73;14.23;;;7.60;99.90;;;;;;5079438;28;20527;-63
2023/12/16 06:13:54;;;;;;;14.63;14.13;;;7.60;99.90;;;;;;5080192;28;20214;-64
2023/12/16 06:16:21;;;;;;;13.80;13.30;;;7.60;99.90;;;;;;5081039;28;20420;-64
2023/12/16 06:18:50;;;;;;;14.30;13.80;;;7.60;99.90;;;;;;5079975;28;20553;-64
2023/12/16 06:21:18;;;;;;;14.43;13.93;;;7.60;99.90;;;;;;5088213;28;20599;-64
2023/12/16 06:23:44;;;;;;;14.43;13.93;;;7.60;99.90;;;;;;5085217;28;20223;-63
2023/12/16 06:26:11;;;;;;;14.30;13.80;;;7.60;99.90;;;;;;5084576;28;20222;-64
2023/12/16 06:28:38;;;;;;;14.10;13.60;;;7.70;99.90;;;;;;5078994;28;20229;-64
2023/12/16 06:31:05;;;;;;;13.90;13.40;;;7.70;99.90;;;;;;5074890;28;20207;-63
2023/12/16 06:33:31;;;;;;;14.27;13.77;;;7.70;99.90;;;;;;5070775;28;20225;-65
2023/12/16 06:35:58;;;;;;;12.70;12.30;;;7.70;99.90;;;;;;5075561;28;20199;-63
2023/12/16 06:38:26;;;;;;;13.97;13.47;;;7.70;99.90;;;;;;5075668;28;20250;-65
2023/12/16 06:40:53;;;;;;;13.87;13.37;;;7.70;99.90;;;;;;5074104;28;20206;-64
2023/12/16 06:43:20;;;;;;;13.53;13.03;;;7.70;99.90;;;;;;5074628;28;20614;-64
2023/12/16 06:45:46;;;;;;;14.30;13.80;;;7.60;99.90;;;;;;5086610;28;20212;-65
2023/12/16 06:48:13;;;;;;;14.13;13.63;;;7.70;99.90;;;;;;5089791;28;20222;-64
2023/12/16 06:50:40;;;;;;;14.20;13.70;;;7.60;99.90;;;;;;5078725;28;20214;-64
2023/12/16 06:53:07;;;;;;;13.57;13.07;;;7.60;99.90;;;;;;5074805;28;20297;-64
2023/12/16 06:55:35;;;;;;;14.50;14.00;;;7.60;99.90;;;;;;5075001;28;20666;-65
2023/12/16 06:58:02;;;;;;;14.50;14.00;;;7.50;99.90;;;;;;5074504;28;20227;-64
2023/12/16 07:00:28;;;;;;;16.40;15.70;;;7.50;99.90;;;;;;5071155;28;20203;-65
2023/12/16 07:02:55;;;;;;;14.57;14.07;;;7.40;99.90;;;;;;5070815;28;20226;-64
2023/12/16 07:05:22;;;;;;;14.57;13.97;;;7.40;99.90;;;;;;5070604;28;20207;-64
2023/12/16 07:07:48;;;;;;;14.50;14.00;;;7.40;99.90;;;;;;5074027;28;20223;-63
2023/12/16 07:10:15;;;;;;;14.20;13.70;;;7.40;99.90;;;;;;5073782;28;20581;-64
2023/12/16 07:12:43;;;;;;;14.57;14.07;;;7.40;99.90;;;;;;5073999;28;20218;-64
2023/12/16 07:15:10;;;;;;;14.23;13.73;;;7.40;99.90;;;;;;5070237;28;20207;-67
2023/12/16 07:17:37;;;;;;;15.00;14.50;;;7.40;99.90;;;;;;5074025;28;20276;-64
2023/12/16 07:20:05;;;;;;;14.70;14.20;;;7.40;99.90;;;;;;5075140;28;20206;-65
2023/12/16 07:22:32;;;;;;;14.40;13.90;;;7.40;99.90;;;;;;5074835;28;20206;-66
2023/12/16 07:24:58;;;;;;;13.53;13.03;;;7.40;99.90;;;;;;5074023;28;20297;-65
2023/12/16 07:27:25;;;;;;;11.47;11.07;;;8.10;99.90;;;;;;5073058;28;20231;-65
2023/12/16 07:29:53;;;;;;;11.30;10.90;;;9.00;99.90;;;;;;5072075;28;20218;-65
2023/12/16 07:32:20;;;;;;;10.70;10.30;;;9.60;99.90;;;;;;5073259;28;20207;-65
2023/12/16 07:34:49;;;;;;;11.67;11.27;;;10.00;99.90;;;;;;5072676;28;20662;-66
2023/12/16 07:37:16;;;;;;;12.20;11.80;;;10.30;99.90;;;;;;5073430;28;20208;-65
2023/12/16 07:39:43;;;;;;;12.13;11.73;;;10.40;99.90;;;;;;5073021;28;20570;-64
2023/12/16 07:42:11;;;;;;;12.73;12.30;;;10.40;99.90;;;;;;5072736;28;20203;-66
2023/12/16 07:44:37;;;;;;;11.73;11.33;;;10.40;99.90;;;;;;5073238;28;20243;-65
2023/12/16 07:47:06;;;;;;;11.57;11.17;;;10.30;99.90;;;;;;5074621;28;20207;-65
2023/12/16 07:49:32;;;;;;;11.40;11.00;;;10.30;99.90;;;;;;5074781;28;20663;-64
2023/12/16 07:52:00;;;;;;;10.87;10.47;;;10.30;99.90;;;;;;5073257;28;20211;-66
2023/12/16 07:54:28;;;;;;;11.13;10.73;;;10.50;99.90;;;;;;5072642;28;20249;-66
2023/12/16 07:56:55;;;;;;;11.60;11.20;;;10.70;99.90;;;;;;5073083;28;20211;-65
2023/12/16 07:59:22;;;;;;;12.03;11.63;;;10.80;99.90;;;;;;5072617;28;20268;-64
2023/12/16 08:01:49;;;;;;;12.57;12.07;;;10.80;99.90;;;;;;5066536;28;20203;-65
2023/12/16 08:04:18;;;;;;;12.20;11.70;;;10.60;99.90;;;;;;5071284;28;20593;-64
2023/12/16 08:06:45;;;;;;;12.27;11.87;;;10.70;99.90;;;;;;5072195;28;20689;-63
2023/12/16 08:09:11;;;;;;;12.60;12.20;;;10.60;99.90;;;;;;5072042;28;20234;-64
2023/12/16 08:11:38;;;;;;;12.33;11.93;;;10.70;99.90;;;;;;5068555;28;20688;-65
2023/12/16 08:14:06;;;;;;;11.97;11.57;;;10.40;99.90;;;;;;5072914;28;20210;-67
2023/12/16 08:16:33;;;;;;;11.33;10.93;;;9.90;99.90;;;;;;5072640;28;20568;-66
2023/12/16 08:18:59;;;;;;;12.20;11.80;;;9.30;99.90;;;;;;5072738;28;20228;-65
2023/12/16 08:21:27;;;;;;;12.93;12.53;;;8.90;99.90;;;;;;5068308;28;20210;-65
2023/12/16 08:23:54;;;;;;;12.90;12.50;;;8.70;99.90;;;;;;5066480;28;20234;-65
2023/12/16 08:26:21;;;;;;;13.27;12.83;;;8.50;99.90;;;;;;5072055;28;20690;-66
2023/12/16 08:28:50;;;;;;;13.93;13.40;;;8.40;99.90;;;;;;5070730;28;20219;-65
2023/12/16 08:31:16;;;;;;;13.00;12.57;;;8.30;99.90;;;;;;5082758;28;20226;-66
2023/12/16 08:33:43;;;;;;;13.03;12.60;;;8.20;99.90;;;;;;5087576;28;20207;-67
2023/12/16 08:36:10;;;;;;;13.03;12.53;;;8.20;99.90;;;;;;5071993;28;20203;-66
2023/12/16 08:38:39;;;;;;;12.80;12.37;;;8.10;99.90;;;;;;5072959;28;20223;-66
2023/12/16 08:41:07;;;;;;;12.53;12.13;;;8.00;99.90;;;;;;5068719;28;20246;-67
2023/12/16 08:43:34;;;;;;;11.53;11.13;;;8.00;99.90;;;;;;5072625;28;20660;-65
2023/12/16 08:46:01;;;;;;;11.50;11.10;;;7.90;99.90;;;;;;5073134;28;20239;-65
2023/12/16 08:48:28;;;;;;;12.87;12.47;;;7.90;99.90;;;;;;5072796;28;20296;-65
2023/12/16 08:50:56;;;;;;;12.10;11.70;;;7.90;99.90;;;;;;5072405;28;20207;-65
2023/12/16 08:53:23;;;;;;;12.27;11.87;;;7.90;99.90;;;;;;5072485;28;21036;-65
2023/12/16 08:55:51;;;;;;;12.20;11.80;;;7.90;99.90;;;;;;5072188;28;20688;-65
2023/12/16 08:58:19;;;;;;;12.63;12.23;;;7.90;99.90;;;;;;5072318;28;20697;-64
2023/12/16 09:00:46;;;;;;;11.90;11.40;;;7.90;99.90;;;;;;5072175;28;20219;-66
2023/12/16 09:03:14;;;;;;;11.70;11.30;;;7.90;99.90;;;;;;5072583;28;20215;-65
2023/12/16 09:05:41;;;;;;;12.03;11.63;;;7.90;99.90;;;;;;5072559;28;20709;-64
2023/12/16 09:08:08;;;;;;;11.53;11.13;;;7.80;99.90;;;;;;5068683;28;20626;-65
2023/12/16 09:10:35;;;;;;;12.67;12.17;;;7.80;99.90;;;;;;5072594;28;20219;-66
2023/12/16 09:13:03;;;;;;;11.53;11.13;;;7.80;99.90;;;;;;5072277;28;20210;-65
2023/12/16 09:15:30;;;;;;;11.93;11.43;;;7.80;99.90;;;;;;5072649;28;20615;-64
2023/12/16 09:17:57;;;;;;;12.10;11.70;;;7.80;99.90;;;;;;5070903;28;20796;-64
2023/12/16 09:20:24;;;;;;;12.93;12.43;;;7.80;99.90;;;;;;5071588;28;20207;-64
2023/12/16 09:22:51;;;;;;;11.53;11.13;;;7.90;99.90;;;;;;5072052;28;20214;-64
2023/12/16 09:25:18;;;;;;;11.63;11.23;;;7.90;99.90;;;;;;5071682;28;20679;-66
2023/12/16 09:27:45;;;;;;;11.73;11.33;;;7.90;99.90;;;;;;5070939;28;20227;-64
2023/12/16 09:30:14;;;;;;;11.53;11.13;;;7.90;99.90;;;;;;5069729;28;20306;-66
2023/12/16 09:32:44;;;;;;;11.87;11.37;;;8.00;99.90;;;;;;5067484;28;20207;-69
2023/12/16 09:35:11;;;;;;;11.97;11.57;;;8.00;99.90;;;;;;5071581;28;20207;-65
2023/12/16 09:37:37;;;;;;;11.43;11.03;;;8.10;99.90;;;;;;5071383;28;20258;-65
2023/12/16 09:40:05;;;;;;;11.97;11.57;;;8.20;99.90;;;;;;5071267;28;20681;-64
2023/12/16 09:42:35;;;;;;;11.30;10.90;;;8.20;99.90;;;;;;5070353;28;20203;-64
2023/12/16 09:45:03;;;;;;;12.03;11.63;;;8.20;99.90;;;;;;5071565;28;20225;-64
2023/12/16 09:47:31;;;;;;;11.80;11.40;;;8.20;99.90;;;;;;5071234;28;20223;-65
2023/12/16 09:49:59;;;;;;;11.50;11.10;;;8.20;99.90;;;;;;5072549;28;20654;-65
2023/12/16 09:52:26;;;;;;;12.50;12.10;;;8.20;99.90;;;;;;5071340;28;20215;-65
2023/12/16 09:54:54;;;;;;;12.20;11.80;;;8.20;99.90;;;;;;5070365;28;20237;-65
2023/12/16 09:57:23;;;;;;;12.07;11.67;;;8.30;99.90;;;;;;5071012;28;20227;-65
2023/12/16 09:59:50;;;;;;;12.80;12.30;;;8.40;99.90;;;;;;5073232;28;20207;-65
2023/12/16 10:02:27;;;;;;;12.67;12.27;;;8.50;99.90;;;;;;5076483;28;20317;-65
2023/12/16 10:04:57;;;;;;;11.83;11.43;;;8.60;99.90;;;;;;5073706;28;20298;-65
2023/12/16 10:07:23;;;;;;;12.27;11.87;;;8.60;99.90;;;;;;5074387;28;20234;-67
2023/12/16 10:09:50;;;;;;;12.63;12.23;;;8.60;99.90;;;;;;5074187;28;20229;-66
2023/12/16 10:12:19;;;;;;;11.73;11.33;;;8.70;99.90;;;;;;5073398;28;20294;-68
2023/12/16 10:14:47;;;;;;;13.03;12.53;;;8.70;99.90;;;;;;5078164;28;20214;-67
2023/12/16 10:17:14;;;;;;;13.07;12.60;;;8.70;99.90;;;;;;5077065;28;20204;-68
2023/12/16 10:19:43;;;;;;;12.50;12.10;;;8.70;99.90;;;;;;5074966;28;20203;-65
2023/12/16 10:22:12;;;;;;;12.00;11.60;;;8.70;99.90;;;;;;5066510;28;20207;-66
2023/12/16 10:24:40;;;;;;;13.50;13.00;;;8.70;99.90;;;;;;5070363;28;20227;-67
2023/12/16 10:27:08;;;;;;;12.57;12.13;;;8.80;99.90;;;;;;5064753;28;20208;-66
2023/12/16 10:29:35;;;;;;;13.03;12.57;;;8.80;99.90;;;;;;5070124;28;20253;-68
2023/12/16 10:32:02;;;;;;;13.23;12.80;;;9.00;99.90;;;;;;5070504;28;20199;-67
2023/12/16 10:34:29;;;;;;;14.30;13.80;;;9.00;99.90;;;;;;5068344;28;20214;-67
2023/12/16 10:37:04;;;;;;;14.03;13.53;;;9.10;99.90;;;;;;5065834;28;20632;-67
2023/12/16 10:39:32;;;;;;;15.10;14.60;;;9.10;99.90;;;;;;5068570;28;20268;-67
2023/12/16 10:41:59;;;;;;;13.40;12.90;;;9.20;99.90;;;;;;5063071;28;20207;-67
2023/12/16 10:44:26;;;;;;;13.30;12.80;;;9.20;99.90;;;;;;5070240;28;20230;-67
2023/12/16 10:46:55;;;;;;;13.50;13.00;;;9.30;99.90;;;;;;5069043;28;20208;-67
2023/12/16 10:49:28;;;;;;;13.30;12.80;;;9.30;99.90;;;;;;5068019;28;20290;-69
2023/12/16 10:52:05;;;;;;;13.23;12.77;;;9.30;99.90;;;;;;5065401;28;20207;-69
2023/12/16 10:54:40;;;;;;;13.67;13.17;;;9.40;99.90;;;;;;5065867;28;20591;-67
2023/12/16 10:57:20;;;;;;;13.40;12.90;;;9.40;99.90;;;;;;5065297;28;20211;-68
2023/12/16 10:59:55;;;;;;;13.10;12.67;;;9.50;99.90;;;;;;5067784;28;20211;-67
2023/12/16 11:02:26;;;;;;;13.37;12.87;;;9.50;99.90;;;;;;5070671;28;20234;-66
2023/12/16 11:05:12;;;;;;;13.27;12.77;;;9.60;99.90;;;;;;5068292;28;20230;-67
2023/12/16 11:07:41;;;;;;;13.80;13.30;;;9.60;99.90;;;;;;5068264;28;20238;-68
2023/12/16 11:10:09;;;;;;;13.27;12.77;;;9.60;99.90;;;;;;5073479;28;20245;-66
2023/12/16 11:12:38;;;;;;;13.60;13.10;;;9.70;99.90;;;;;;5074769;28;20203;-68
2023/12/16 11:15:06;;;;;;;14.07;13.57;;;9.70;99.90;;;;;;5072503;28;20222;-66
2023/12/16 11:17:46;;;;;;;13.63;13.13;;;9.80;99.90;;;;;;5071273;28;20238;-69
2023/12/16 11:20:17;;;;;;;13.07;12.63;;;9.80;99.90;;;;;;5070461;28;20290;-65
2023/12/16 11:22:51;;;;;;;14.07;13.57;;;9.90;99.90;;;;;;5069498;28;20203;-66
2023/12/16 11:25:20;;;;;;;13.73;13.23;;;9.90;99.90;;;;;;5067524;28;20282;-66
2023/12/16 11:27:48;;;;;;;13.47;12.97;;;9.90;99.90;;;;;;5073066;28;20231;-67
2023/12/16 11:30:16;;;;;;;12.87;12.37;;;9.90;99.90;;;;;;5070948;28;20303;-68
2023/12/16 11:32:45;;;;;;;12.37;11.97;;;9.80;99.90;;;;;;5075384;28;20198;-66
2023/12/16 11:35:12;;;;;;;13.73;13.23;;;9.90;99.90;;;;;;5079626;28;20263;-65
2023/12/16 11:37:43;;;;;;;13.00;12.50;;;9.90;99.90;;;;;;5071431;28;20231;-64
2023/12/16 11:40:42;;;;;;;13.17;12.67;;;9.80;99.90;;;;;;5067310;28;20230;-66
2023/12/16 11:43:10;;;;;;;13.30;12.80;;;9.70;99.90;;;;;;5073157;28;20259;-66
2023/12/16 11:45:38;;;;;;;13.50;13.00;;;9.70;99.90;;;;;;5072296;28;20222;-65
2023/12/16 11:48:05;;;;;;;13.53;13.03;;;9.80;99.90;;;;;;5071987;28;20223;-63
2023/12/16 11:50:34;;;;;;;14.07;13.57;;;9.70;99.90;;;;;;5072247;28;20210;-65
2023/12/16 11:53:01;;;;;;;13.50;13.00;;;9.80;99.90;;;;;;5071933;28;20217;-63
2023/12/16 11:55:28;;;;;;;12.83;12.37;;;9.90;99.90;;;;;;5073675;28;20199;-64
2023/12/16 11:57:56;;;;;;;13.87;13.30;;;9.80;99.90;;;;;;5069929;28;20230;-64
2023/12/16 12:00:22;;;;;;;15.07;14.57;;;9.60;99.90;;;;;;5069616;28;20208;-64
2023/12/16 12:02:50;;;;;;;13.53;13.03;;;9.40;99.90;;;;;;5071380;28;20226;-63
2023/12/16 12:05:17;;;;;;;14.17;13.67;;;9.40;99.90;;;;;;5070422;28;20220;-62
2023/12/16 12:07:44;;;;;;;13.67;13.17;;;9.40;99.90;;;;;;5072393;28;20235;-64
2023/12/16 12:10:11;;;;;;;13.40;12.90;;;9.40;99.90;;;;;;5072875;28;20201;-64
2023/12/16 12:12:38;;;;;;;13.90;13.40;;;9.50;99.90;;;;;;5070770;28;20195;-64
2023/12/16 12:15:07;;;;;;;14.73;14.20;;;9.60;99.90;;;;;;5070358;28;20226;-65
2023/12/16 12:17:34;;;;;;;13.40;12.90;;;9.60;99.90;;;;;;5070290;28;20721;-64
2023/12/16 12:20:02;;;;;;;14.20;13.70;;;9.60;99.90;;;;;;5073910;28;20203;-66
2023/12/16 12:22:29;;;;;;;13.07;12.67;;;9.70;99.90;;;;;;5070583;28;20203;-63
2023/12/16 12:24:57;;;;;;;14.73;14.23;;;9.60;99.90;;;;;;5072654;28;20722;-65
2023/12/16 12:27:24;;;;;;;14.53;13.97;;;9.50;99.90;;;;;;5072651;28;20231;-66
2023/12/16 12:29:56;;;;;;;14.27;13.77;;;9.60;99.90;;;;;;5074563;28;20214;-65
2023/12/16 12:32:24;;;;;;;14.00;13.50;;;9.50;99.90;;;;;;5087383;28;20198;-66
2023/12/16 12:35:00;;;;;;;14.20;13.70;;;9.40;99.90;;;;;;5086961;28;20215;-65
2023/12/16 12:37:27;;;;;;;13.50;13.00;;;9.40;99.90;;;;;;5087277;28;20237;-65